sensor_id;sensor_type;location;lat;lon;timestamp;P1;durP1;ratioP1;P2;durP2;ratioP2
51718;SDS011;37795;53.236;5.704;2023-03-19T00:01:12;6.22;;;4.75;;
51718;SDS011;37795;53.236;5.704;2023-03-19T00:03:38;7.40;;;4.50;;
51718;SDS011;37795;53.236;5.704;2023-03-19T00:06:04;8.37;;;5.53;;
51718;SDS011;37795;53.236;5.704;2023-03-19T00:08:30;8.40;;;7.65;;
51718;SDS011;37795;53.236;5.704;2023-03-19T00:10:56;5.60;;;4.03;;
51718;SDS011;37795;53.236;5.704;2023-03-19T00:13:21;8.50;;;4.70;;
51718;SDS011;37795;53.236;5.704;2023-03-19T00:15:47;8.97;;;5.07;;
51718;SDS011;37795;53.236;5.704;2023-03-19T00:18:13;7.67;;;4.83;;
51718;SDS011;37795;53.236;5.704;2023-03-19T00:20:39;5.50;;;4.47;;
51718;SDS011;37795;53.236;5.704;2023-03-19T00:23:04;5.63;;;4.33;;
51718;SDS011;37795;53.236;5.704;2023-03-19T00:25:30;4.93;;;3.83;;
51718;SDS011;37795;53.236;5.704;2023-03-19T00:27:57;4.82;;;4.22;;
51718;SDS011;37795;53.236;5.704;2023-03-19T00:30:23;7.07;;;5.20;;
51718;SDS011;37795;53.236;5.704;2023-03-19T00:32:49;5.40;;;4.90;;
51718;SDS011;37795;53.236;5.704;2023-03-19T00:35:14;5.40;;;4.37;;
51718;SDS011;37795;53.236;5.704;2023-03-19T00:37:40;5.22;;;4.43;;
51718;SDS011;37795;53.236;5.704;2023-03-19T00:40:07;5.72;;;4.65;;
51718;SDS011;37795;53.236;5.704;2023-03-19T00:42:34;5.65;;;4.93;;
51718;SDS011;37795;53.236;5.704;2023-03-19T00:45:00;5.68;;;5.07;;
51718;SDS011;37795;53.236;5.704;2023-03-19T00:47:26;7.47;;;4.90;;
51718;SDS011;37795;53.236;5.704;2023-03-19T00:49:52;8.07;;;5.53;;
51718;SDS011;37795;53.236;5.704;2023-03-19T00:52:17;5.90;;;5.30;;
51718;SDS011;37795;53.236;5.704;2023-03-19T00:54:43;8.97;;;5.63;;
51718;SDS011;37795;53.236;5.704;2023-03-19T00:57:09;6.30;;;4.87;;
51718;SDS011;37795;53.236;5.704;2023-03-19T00:59:35;5.70;;;5.17;;
51718;SDS011;37795;53.236;5.704;2023-03-19T01:02:00;5.63;;;5.17;;
51718;SDS011;37795;53.236;5.704;2023-03-19T01:04:26;6.13;;;5.63;;
51718;SDS011;37795;53.236;5.704;2023-03-19T01:06:52;5.83;;;5.23;;
51718;SDS011;37795;53.236;5.704;2023-03-19T01:09:17;6.33;;;5.73;;
51718;SDS011;37795;53.236;5.704;2023-03-19T01:11:43;9.17;;;6.43;;
51718;SDS011;37795;53.236;5.704;2023-03-19T01:14:09;7.73;;;6.17;;
51718;SDS011;37795;53.236;5.704;2023-03-19T01:16:35;6.97;;;5.32;;
51718;SDS011;37795;53.236;5.704;2023-03-19T01:19:01;11.63;;;5.93;;
51718;SDS011;37795;53.236;5.704;2023-03-19T01:21:27;5.72;;;5.15;;
51718;SDS011;37795;53.236;5.704;2023-03-19T01:23:55;6.05;;;5.40;;
51718;SDS011;37795;53.236;5.704;2023-03-19T01:28:47;7.72;;;5.57;;
51718;SDS011;37795;53.236;5.704;2023-03-19T01:31:13;6.37;;;5.77;;
51718;SDS011;37795;53.236;5.704;2023-03-19T01:33:39;6.28;;;5.78;;
51718;SDS011;37795;53.236;5.704;2023-03-19T01:36:05;5.57;;;5.07;;
51718;SDS011;37795;53.236;5.704;2023-03-19T01:40:58;7.00;;;5.88;;
51718;SDS011;37795;53.236;5.704;2023-03-19T01:43:25;7.90;;;5.53;;
51718;SDS011;37795;53.236;5.704;2023-03-19T01:45:54;6.93;;;5.72;;
51718;SDS011;37795;53.236;5.704;2023-03-19T01:51:09;6.80;;;6.15;;
51718;SDS011;37795;53.236;5.704;2023-03-19T01:53:38;6.40;;;5.40;;
51718;SDS011;37795;53.236;5.704;2023-03-19T01:58:36;6.20;;;5.25;;
51718;SDS011;37795;53.236;5.704;2023-03-19T02:01:03;9.80;;;6.47;;
51718;SDS011;37795;53.236;5.704;2023-03-19T02:03:28;7.33;;;6.63;;
51718;SDS011;37795;53.236;5.704;2023-03-19T02:05:54;8.75;;;6.75;;
51718;SDS011;37795;53.236;5.704;2023-03-19T02:08:22;7.70;;;7.00;;
51718;SDS011;37795;53.236;5.704;2023-03-19T02:13:14;9.45;;;8.25;;
51718;SDS011;37795;53.236;5.704;2023-03-19T02:15:40;10.10;;;9.02;;
51718;SDS011;37795;53.236;5.704;2023-03-19T02:18:06;12.57;;;9.03;;
51718;SDS011;37795;53.236;5.704;2023-03-19T02:20:50;11.90;;;9.80;;
51718;SDS011;37795;53.236;5.704;2023-03-19T02:28:36;12.10;;;11.00;;
51718;SDS011;37795;53.236;5.704;2023-03-19T02:31:05;12.27;;;11.07;;
51718;SDS011;37795;53.236;5.704;2023-03-19T02:33:31;17.50;;;13.07;;
51718;SDS011;37795;53.236;5.704;2023-03-19T02:35:57;14.17;;;12.83;;
51718;SDS011;37795;53.236;5.704;2023-03-19T02:41:04;13.00;;;11.63;;
51718;SDS011;37795;53.236;5.704;2023-03-19T02:43:32;14.50;;;13.10;;
51718;SDS011;37795;53.236;5.704;2023-03-19T02:46:00;18.13;;;12.60;;
51718;SDS011;37795;53.236;5.704;2023-03-19T02:48:26;13.25;;;12.05;;
51718;SDS011;37795;53.236;5.704;2023-03-19T02:50:52;15.73;;;13.47;;
51718;SDS011;37795;53.236;5.704;2023-03-19T02:53:18;14.48;;;12.93;;
51718;SDS011;37795;53.236;5.704;2023-03-19T02:55:44;17.07;;;15.27;;
51718;SDS011;37795;53.236;5.704;2023-03-19T02:58:10;21.97;;;17.47;;
51718;SDS011;37795;53.236;5.704;2023-03-19T03:00:36;15.90;;;14.30;;
51718;SDS011;37795;53.236;5.704;2023-03-19T03:03:02;17.73;;;15.98;;
51718;SDS011;37795;53.236;5.704;2023-03-19T03:05:30;19.88;;;17.55;;
51718;SDS011;37795;53.236;5.704;2023-03-19T03:07:56;18.75;;;16.95;;
51718;SDS011;37795;53.236;5.704;2023-03-19T03:10:22;17.95;;;16.10;;
51718;SDS011;37795;53.236;5.704;2023-03-19T03:12:48;18.58;;;16.67;;
51718;SDS011;37795;53.236;5.704;2023-03-19T03:15:14;19.43;;;17.50;;
51718;SDS011;37795;53.236;5.704;2023-03-19T03:17:41;19.47;;;17.47;;
51718;SDS011;37795;53.236;5.704;2023-03-19T03:20:08;19.13;;;17.15;;
51718;SDS011;37795;53.236;5.704;2023-03-19T03:22:35;18.27;;;16.55;;
51718;SDS011;37795;53.236;5.704;2023-03-19T03:25:02;22.08;;;19.63;;
51718;SDS011;37795;53.236;5.704;2023-03-19T03:27:28;20.52;;;18.52;;
51718;SDS011;37795;53.236;5.704;2023-03-19T03:29:54;20.17;;;17.23;;
51718;SDS011;37795;53.236;5.704;2023-03-19T03:32:20;19.30;;;17.40;;
51718;SDS011;37795;53.236;5.704;2023-03-19T03:34:46;21.13;;;18.93;;
51718;SDS011;37795;53.236;5.704;2023-03-19T03:37:12;19.37;;;17.17;;
51718;SDS011;37795;53.236;5.704;2023-03-19T03:39:38;18.83;;;15.93;;
51718;SDS011;37795;53.236;5.704;2023-03-19T03:42:03;18.63;;;16.57;;
51718;SDS011;37795;53.236;5.704;2023-03-19T03:44:29;18.38;;;15.60;;
51718;SDS011;37795;53.236;5.704;2023-03-19T03:46:55;18.40;;;16.47;;
51718;SDS011;37795;53.236;5.704;2023-03-19T03:49:21;17.37;;;15.67;;
51718;SDS011;37795;53.236;5.704;2023-03-19T03:51:47;18.70;;;16.83;;
51718;SDS011;37795;53.236;5.704;2023-03-19T03:54:13;17.20;;;15.40;;
51718;SDS011;37795;53.236;5.704;2023-03-19T03:56:39;19.15;;;16.85;;
51718;SDS011;37795;53.236;5.704;2023-03-19T03:59:05;21.17;;;18.97;;
51718;SDS011;37795;53.236;5.704;2023-03-19T04:01:31;18.05;;;16.20;;
51718;SDS011;37795;53.236;5.704;2023-03-19T04:03:58;19.95;;;17.85;;
51718;SDS011;37795;53.236;5.704;2023-03-19T04:06:24;17.65;;;16.05;;
51718;SDS011;37795;53.236;5.704;2023-03-19T04:08:51;19.75;;;17.35;;
51718;SDS011;37795;53.236;5.704;2023-03-19T04:11:17;19.45;;;17.63;;
51718;SDS011;37795;53.236;5.704;2023-03-19T04:13:43;20.00;;;17.92;;
51718;SDS011;37795;53.236;5.704;2023-03-19T04:16:09;20.97;;;18.80;;
51718;SDS011;37795;53.236;5.704;2023-03-19T04:18:35;18.00;;;16.27;;
51718;SDS011;37795;53.236;5.704;2023-03-19T04:21:02;18.88;;;17.05;;
51718;SDS011;37795;53.236;5.704;2023-03-19T04:23:29;21.05;;;18.83;;
51718;SDS011;37795;53.236;5.704;2023-03-19T04:25:58;22.47;;;20.17;;
51718;SDS011;37795;53.236;5.704;2023-03-19T04:28:25;17.70;;;15.85;;
51718;SDS011;37795;53.236;5.704;2023-03-19T04:30:51;20.05;;;17.95;;
51718;SDS011;37795;53.236;5.704;2023-03-19T04:33:22;19.65;;;17.55;;
51718;SDS011;37795;53.236;5.704;2023-03-19T04:35:48;18.70;;;16.70;;
51718;SDS011;37795;53.236;5.704;2023-03-19T04:38:13;17.07;;;15.30;;
51718;SDS011;37795;53.236;5.704;2023-03-19T04:40:39;21.17;;;18.73;;
51718;SDS011;37795;53.236;5.704;2023-03-19T04:43:05;18.42;;;16.58;;
51718;SDS011;37795;53.236;5.704;2023-03-19T04:45:31;17.80;;;15.97;;
51718;SDS011;37795;53.236;5.704;2023-03-19T04:47:57;16.33;;;14.63;;
51718;SDS011;37795;53.236;5.704;2023-03-19T04:50:22;17.90;;;16.07;;
51718;SDS011;37795;53.236;5.704;2023-03-19T04:52:49;15.65;;;14.05;;
51718;SDS011;37795;53.236;5.704;2023-03-19T04:55:14;16.33;;;14.63;;
51718;SDS011;37795;53.236;5.704;2023-03-19T04:57:40;16.33;;;14.43;;
51718;SDS011;37795;53.236;5.704;2023-03-19T05:00:06;17.83;;;15.90;;
51718;SDS011;37795;53.236;5.704;2023-03-19T05:02:32;17.50;;;15.70;;
51718;SDS011;37795;53.236;5.704;2023-03-19T05:04:58;15.77;;;13.97;;
51718;SDS011;37795;53.236;5.704;2023-03-19T05:07:24;19.37;;;15.63;;
51718;SDS011;37795;53.236;5.704;2023-03-19T05:09:50;18.42;;;16.58;;
51718;SDS011;37795;53.236;5.704;2023-03-19T05:12:16;18.57;;;16.77;;
51718;SDS011;37795;53.236;5.704;2023-03-19T05:14:41;17.77;;;16.03;;
51718;SDS011;37795;53.236;5.704;2023-03-19T05:17:07;17.97;;;15.93;;
51718;SDS011;37795;53.236;5.704;2023-03-19T05:19:35;18.40;;;15.25;;
51718;SDS011;37795;53.236;5.704;2023-03-19T05:22:02;17.25;;;15.55;;
51718;SDS011;37795;53.236;5.704;2023-03-19T05:24:28;17.98;;;16.10;;
51718;SDS011;37795;53.236;5.704;2023-03-19T05:26:54;19.07;;;16.70;;
51718;SDS011;37795;53.236;5.704;2023-03-19T05:29:20;18.70;;;16.90;;
51718;SDS011;37795;53.236;5.704;2023-03-19T05:31:46;20.67;;;16.97;;
51718;SDS011;37795;53.236;5.704;2023-03-19T05:34:12;19.85;;;17.80;;
51718;SDS011;37795;53.236;5.704;2023-03-19T05:36:37;18.67;;;16.23;;
51718;SDS011;37795;53.236;5.704;2023-03-19T05:39:04;18.30;;;16.35;;
51718;SDS011;37795;53.236;5.704;2023-03-19T05:41:30;19.98;;;16.83;;
51718;SDS011;37795;53.236;5.704;2023-03-19T05:43:56;18.98;;;17.08;;
51718;SDS011;37795;53.236;5.704;2023-03-19T05:46:22;18.98;;;17.08;;
51718;SDS011;37795;53.236;5.704;2023-03-19T05:48:48;18.42;;;16.50;;
51718;SDS011;37795;53.236;5.704;2023-03-19T05:51:15;21.00;;;18.80;;
51718;SDS011;37795;53.236;5.704;2023-03-19T05:53:41;21.87;;;19.57;;
51718;SDS011;37795;53.236;5.704;2023-03-19T05:56:07;20.50;;;18.37;;
51718;SDS011;37795;53.236;5.704;2023-03-19T05:58:33;19.30;;;17.30;;
51718;SDS011;37795;53.236;5.704;2023-03-19T06:00:58;22.67;;;19.83;;
51718;SDS011;37795;53.236;5.704;2023-03-19T06:03:24;22.43;;;19.60;;
51718;SDS011;37795;53.236;5.704;2023-03-19T06:08:17;22.23;;;19.75;;
51718;SDS011;37795;53.236;5.704;2023-03-19T06:10:44;23.75;;;20.35;;
51718;SDS011;37795;53.236;5.704;2023-03-19T06:13:11;23.40;;;19.55;;
51718;SDS011;37795;53.236;5.704;2023-03-19T06:15:36;27.07;;;21.80;;
51718;SDS011;37795;53.236;5.704;2023-03-19T06:18:02;25.13;;;20.90;;
51718;SDS011;37795;53.236;5.704;2023-03-19T06:20:28;25.10;;;22.40;;
51718;SDS011;37795;53.236;5.704;2023-03-19T06:22:54;23.13;;;20.13;;
51718;SDS011;37795;53.236;5.704;2023-03-19T06:25:20;23.13;;;20.53;;
51718;SDS011;37795;53.236;5.704;2023-03-19T06:27:46;28.13;;;22.07;;
51718;SDS011;37795;53.236;5.704;2023-03-19T06:30:12;25.33;;;21.30;;
51718;SDS011;37795;53.236;5.704;2023-03-19T06:32:38;28.63;;;22.42;;
51718;SDS011;37795;53.236;5.704;2023-03-19T06:35:04;27.33;;;23.40;;
51718;SDS011;37795;53.236;5.704;2023-03-19T06:37:30;25.02;;;20.98;;
51718;SDS011;37795;53.236;5.704;2023-03-19T06:39:57;25.40;;;21.70;;
51718;SDS011;37795;53.236;5.704;2023-03-19T06:42:22;24.37;;;21.33;;
51718;SDS011;37795;53.236;5.704;2023-03-19T06:44:48;25.43;;;22.13;;
51718;SDS011;37795;53.236;5.704;2023-03-19T06:47:14;24.17;;;19.40;;
51718;SDS011;37795;53.236;5.704;2023-03-19T06:49:40;30.37;;;24.33;;
51718;SDS011;37795;53.236;5.704;2023-03-19T06:57:15;32.03;;;24.85;;
51718;SDS011;37795;53.236;5.704;2023-03-19T06:59:41;39.47;;;29.00;;
51718;SDS011;37795;53.236;5.704;2023-03-19T07:02:08;41.93;;;28.17;;
51718;SDS011;37795;53.236;5.704;2023-03-19T07:04:35;42.63;;;31.45;;
51718;SDS011;37795;53.236;5.704;2023-03-19T07:07:01;40.90;;;28.90;;
51718;SDS011;37795;53.236;5.704;2023-03-19T07:09:29;48.20;;;31.60;;
51718;SDS011;37795;53.236;5.704;2023-03-19T07:11:55;46.10;;;32.63;;
51718;SDS011;37795;53.236;5.704;2023-03-19T07:14:20;46.87;;;33.17;;
51718;SDS011;37795;53.236;5.704;2023-03-19T07:16:46;61.40;;;35.43;;
51718;SDS011;37795;53.236;5.704;2023-03-19T07:19:12;44.80;;;31.97;;
51718;SDS011;37795;53.236;5.704;2023-03-19T07:21:37;50.50;;;34.23;;
51718;SDS011;37795;53.236;5.704;2023-03-19T07:24:03;54.27;;;37.07;;
51718;SDS011;37795;53.236;5.704;2023-03-19T07:26:29;58.83;;;37.80;;
51718;SDS011;37795;53.236;5.704;2023-03-19T07:28:55;67.35;;;40.65;;
51718;SDS011;37795;53.236;5.704;2023-03-19T07:31:21;70.57;;;39.80;;
51718;SDS011;37795;53.236;5.704;2023-03-19T07:33:46;56.83;;;35.73;;
51718;SDS011;37795;53.236;5.704;2023-03-19T07:36:12;58.63;;;40.00;;
51718;SDS011;37795;53.236;5.704;2023-03-19T07:38:38;68.37;;;43.60;;
51718;SDS011;37795;53.236;5.704;2023-03-19T07:41:03;70.33;;;43.37;;
51718;SDS011;37795;53.236;5.704;2023-03-19T07:43:29;81.37;;;43.70;;
51718;SDS011;37795;53.236;5.704;2023-03-19T07:45:55;62.03;;;42.58;;
51718;SDS011;37795;53.236;5.704;2023-03-19T07:48:21;64.63;;;40.77;;
51718;SDS011;37795;53.236;5.704;2023-03-19T07:50:49;65.97;;;43.67;;
51718;SDS011;37795;53.236;5.704;2023-03-19T07:53:15;71.57;;;45.55;;
51718;SDS011;37795;53.236;5.704;2023-03-19T07:55:41;77.70;;;45.93;;
51718;SDS011;37795;53.236;5.704;2023-03-19T07:58:07;64.30;;;41.70;;
51718;SDS011;37795;53.236;5.704;2023-03-19T08:00:32;66.00;;;42.43;;
51718;SDS011;37795;53.236;5.704;2023-03-19T08:02:58;67.73;;;40.57;;
51718;SDS011;37795;53.236;5.704;2023-03-19T08:05:24;65.07;;;34.70;;
51718;SDS011;37795;53.236;5.704;2023-03-19T08:07:49;69.87;;;37.77;;
51718;SDS011;37795;53.236;5.704;2023-03-19T08:10:16;82.23;;;37.67;;
51718;SDS011;37795;53.236;5.704;2023-03-19T08:12:42;73.88;;;35.30;;
51718;SDS011;37795;53.236;5.704;2023-03-19T08:15:08;73.00;;;35.63;;
51718;SDS011;37795;53.236;5.704;2023-03-19T08:17:35;62.30;;;37.92;;
51718;SDS011;37795;53.236;5.704;2023-03-19T08:20:09;71.78;;;38.65;;
51718;SDS011;37795;53.236;5.704;2023-03-19T08:22:36;82.10;;;39.28;;
51718;SDS011;37795;53.236;5.704;2023-03-19T08:25:03;91.03;;;43.88;;
51718;SDS011;37795;53.236;5.704;2023-03-19T08:27:29;105.40;;;49.50;;
51718;SDS011;37795;53.236;5.704;2023-03-19T08:29:56;81.87;;;46.00;;
51718;SDS011;37795;53.236;5.704;2023-03-19T08:32:23;77.28;;;45.42;;
51718;SDS011;37795;53.236;5.704;2023-03-19T08:34:49;75.82;;;46.00;;
51718;SDS011;37795;53.236;5.704;2023-03-19T08:37:14;93.77;;;44.03;;
51718;SDS011;37795;53.236;5.704;2023-03-19T08:39:40;101.30;;;46.17;;
51718;SDS011;37795;53.236;5.704;2023-03-19T08:42:06;100.93;;;46.20;;
51718;SDS011;37795;53.236;5.704;2023-03-19T08:44:32;82.00;;;46.13;;
51718;SDS011;37795;53.236;5.704;2023-03-19T08:46:57;88.03;;;46.00;;
51718;SDS011;37795;53.236;5.704;2023-03-19T08:49:24;83.20;;;45.30;;
51718;SDS011;37795;53.236;5.704;2023-03-19T08:51:50;66.47;;;35.95;;
51718;SDS011;37795;53.236;5.704;2023-03-19T08:54:15;70.37;;;34.03;;
51718;SDS011;37795;53.236;5.704;2023-03-19T08:56:41;65.60;;;31.37;;
51718;SDS011;37795;53.236;5.704;2023-03-19T08:59:07;59.50;;;30.93;;
51718;SDS011;37795;53.236;5.704;2023-03-19T09:01:33;57.40;;;28.23;;
51718;SDS011;37795;53.236;5.704;2023-03-19T09:03:59;49.45;;;29.67;;
51718;SDS011;37795;53.236;5.704;2023-03-19T09:06:25;54.13;;;27.90;;
51718;SDS011;37795;53.236;5.704;2023-03-19T09:08:51;52.70;;;28.73;;
51718;SDS011;37795;53.236;5.704;2023-03-19T09:11:16;46.60;;;25.80;;
51718;SDS011;37795;53.236;5.704;2023-03-19T09:13:42;56.03;;;28.63;;
51718;SDS011;37795;53.236;5.704;2023-03-19T09:16:08;48.33;;;27.27;;
51718;SDS011;37795;53.236;5.704;2023-03-19T09:18:34;40.40;;;22.23;;
51718;SDS011;37795;53.236;5.704;2023-03-19T09:20:59;26.93;;;18.87;;
51718;SDS011;37795;53.236;5.704;2023-03-19T09:23:26;25.55;;;16.23;;
51718;SDS011;37795;53.236;5.704;2023-03-19T09:25:52;30.17;;;15.63;;
51718;SDS011;37795;53.236;5.704;2023-03-19T09:28:18;25.00;;;16.10;;
51718;SDS011;37795;53.236;5.704;2023-03-19T09:30:47;30.00;;;17.90;;
51718;SDS011;37795;53.236;5.704;2023-03-19T09:33:14;37.08;;;19.20;;
51718;SDS011;37795;53.236;5.704;2023-03-19T09:35:41;26.20;;;18.77;;
51718;SDS011;37795;53.236;5.704;2023-03-19T09:38:06;30.20;;;21.10;;
51718;SDS011;37795;53.236;5.704;2023-03-19T09:40:37;36.43;;;21.70;;
51718;SDS011;37795;53.236;5.704;2023-03-19T09:43:15;33.95;;;20.77;;
51718;SDS011;37795;53.236;5.704;2023-03-19T09:46:08;38.15;;;22.50;;
51718;SDS011;37795;53.236;5.704;2023-03-19T09:51:23;32.08;;;20.10;;
51718;SDS011;37795;53.236;5.704;2023-03-19T09:54:06;33.03;;;20.52;;
51718;SDS011;37795;53.236;5.704;2023-03-19T09:56:42;27.73;;;16.33;;
51718;SDS011;37795;53.236;5.704;2023-03-19T09:59:08;26.50;;;17.47;;
51718;SDS011;37795;53.236;5.704;2023-03-19T10:01:35;26.63;;;15.70;;
51718;SDS011;37795;53.236;5.704;2023-03-19T10:04:16;25.42;;;15.35;;
51718;SDS011;37795;53.236;5.704;2023-03-19T10:07:00;19.38;;;13.30;;
51718;SDS011;37795;53.236;5.704;2023-03-19T10:09:39;21.50;;;12.40;;
51718;SDS011;37795;53.236;5.704;2023-03-19T10:12:33;18.38;;;13.52;;
51718;SDS011;37795;53.236;5.704;2023-03-19T10:15:08;18.10;;;12.57;;
51718;SDS011;37795;53.236;5.704;2023-03-19T10:26:03;32.22;;;20.25;;
51718;SDS011;37795;53.236;5.704;2023-03-19T10:28:33;29.13;;;22.50;;
51718;SDS011;37795;53.236;5.704;2023-03-19T10:31:02;27.05;;;18.95;;
51718;SDS011;37795;53.236;5.704;2023-03-19T10:36:33;26.15;;;19.63;;
51718;SDS011;37795;53.236;5.704;2023-03-19T10:39:00;31.67;;;20.25;;
51718;SDS011;37795;53.236;5.704;2023-03-19T10:44:10;25.55;;;14.50;;
51718;SDS011;37795;53.236;5.704;2023-03-19T10:46:50;22.75;;;14.85;;
51718;SDS011;37795;53.236;5.704;2023-03-19T10:49:15;18.60;;;14.20;;
51718;SDS011;37795;53.236;5.704;2023-03-19T10:57:20;26.33;;;17.52;;
51718;SDS011;37795;53.236;5.704;2023-03-19T10:59:50;28.08;;;18.35;;
51718;SDS011;37795;53.236;5.704;2023-03-19T11:02:17;26.17;;;17.00;;
51718;SDS011;37795;53.236;5.704;2023-03-19T11:04:44;18.63;;;14.88;;
51718;SDS011;37795;53.236;5.704;2023-03-19T11:09:44;16.92;;;13.07;;
51718;SDS011;37795;53.236;5.704;2023-03-19T11:14:59;21.83;;;14.48;;
51718;SDS011;37795;53.236;5.704;2023-03-19T11:17:38;23.02;;;12.77;;
51718;SDS011;37795;53.236;5.704;2023-03-19T11:20:29;15.95;;;11.30;;
51718;SDS011;37795;53.236;5.704;2023-03-19T11:22:53;19.13;;;13.48;;
51718;SDS011;37795;53.236;5.704;2023-03-19T11:28:00;19.42;;;14.63;;
51718;SDS011;37795;53.236;5.704;2023-03-19T11:36:12;18.92;;;12.57;;
51718;SDS011;37795;53.236;5.704;2023-03-19T11:41:48;21.48;;;14.52;;
51718;SDS011;37795;53.236;5.704;2023-03-19T11:44:23;20.95;;;15.38;;
51718;SDS011;37795;53.236;5.704;2023-03-19T11:49:36;24.23;;;17.17;;
51718;SDS011;37795;53.236;5.704;2023-03-19T11:52:17;30.83;;;18.38;;
51718;SDS011;37795;53.236;5.704;2023-03-19T12:03:21;29.50;;;20.73;;
51718;SDS011;37795;53.236;5.704;2023-03-19T12:11:22;33.60;;;23.40;;
51718;SDS011;37795;53.236;5.704;2023-03-19T12:24:55;30.60;;;21.40;;
51718;SDS011;37795;53.236;5.704;2023-03-19T12:33:09;26.77;;;20.90;;
51718;SDS011;37795;53.236;5.704;2023-03-19T12:35:42;27.25;;;20.50;;
51718;SDS011;37795;53.236;5.704;2023-03-19T12:46:32;32.30;;;21.48;;
51718;SDS011;37795;53.236;5.704;2023-03-19T12:49:22;33.70;;;23.90;;
51718;SDS011;37795;53.236;5.704;2023-03-19T12:51:56;36.28;;;25.92;;
51718;SDS011;37795;53.236;5.704;2023-03-19T12:54:27;36.05;;;26.83;;
51718;SDS011;37795;53.236;5.704;2023-03-19T13:05:10;37.38;;;26.70;;
51718;SDS011;37795;53.236;5.704;2023-03-19T13:07:53;35.40;;;25.33;;
51718;SDS011;37795;53.236;5.704;2023-03-19T13:10:29;33.95;;;24.92;;
51718;SDS011;37795;53.236;5.704;2023-03-19T13:12:56;34.80;;;27.73;;
51718;SDS011;37795;53.236;5.704;2023-03-19T13:15:28;41.85;;;27.73;;
51718;SDS011;37795;53.236;5.704;2023-03-19T13:23:30;35.90;;;25.88;;
51718;SDS011;37795;53.236;5.704;2023-03-19T13:25:59;36.67;;;28.08;;
51718;SDS011;37795;53.236;5.704;2023-03-19T13:33:26;44.97;;;34.65;;
51718;SDS011;37795;53.236;5.704;2023-03-19T13:35:53;37.70;;;26.90;;
51718;SDS011;37795;53.236;5.704;2023-03-19T13:38:24;33.92;;;25.90;;
51718;SDS011;37795;53.236;5.704;2023-03-19T13:46:01;44.92;;;33.35;;
51718;SDS011;37795;53.236;5.704;2023-03-19T13:55:57;33.08;;;24.27;;
51718;SDS011;37795;53.236;5.704;2023-03-19T13:58:24;36.53;;;27.52;;
51718;SDS011;37795;53.236;5.704;2023-03-19T14:01:11;43.03;;;26.45;;
51718;SDS011;37795;53.236;5.704;2023-03-19T14:04:01;39.75;;;28.05;;
51718;SDS011;37795;53.236;5.704;2023-03-19T14:06:39;34.88;;;27.85;;
51718;SDS011;37795;53.236;5.704;2023-03-19T14:09:06;35.83;;;28.20;;
51718;SDS011;37795;53.236;5.704;2023-03-19T14:14:43;39.50;;;27.15;;
51718;SDS011;37795;53.236;5.704;2023-03-19T14:17:20;38.25;;;23.70;;
51718;SDS011;37795;53.236;5.704;2023-03-19T14:19:51;35.47;;;23.33;;
51718;SDS011;37795;53.236;5.704;2023-03-19T14:22:19;38.28;;;25.45;;
51718;SDS011;37795;53.236;5.704;2023-03-19T14:25:18;43.58;;;25.27;;
51718;SDS011;37795;53.236;5.704;2023-03-19T14:27:50;44.25;;;25.50;;
51718;SDS011;37795;53.236;5.704;2023-03-19T14:32:56;26.98;;;19.85;;
51718;SDS011;37795;53.236;5.704;2023-03-19T14:35:26;33.08;;;21.92;;
51718;SDS011;37795;53.236;5.704;2023-03-19T14:37:55;33.80;;;22.50;;
51718;SDS011;37795;53.236;5.704;2023-03-19T14:40:22;27.23;;;19.83;;
51718;SDS011;37795;53.236;5.704;2023-03-19T14:42:59;25.48;;;18.92;;
51718;SDS011;37795;53.236;5.704;2023-03-19T14:45:59;28.63;;;15.48;;
51718;SDS011;37795;53.236;5.704;2023-03-19T14:56:54;32.65;;;20.05;;
51718;SDS011;37795;53.236;5.704;2023-03-19T14:59:21;31.55;;;22.50;;
51718;SDS011;37795;53.236;5.704;2023-03-19T15:01:48;29.97;;;22.70;;
51718;SDS011;37795;53.236;5.704;2023-03-19T15:04:18;36.65;;;20.80;;
51718;SDS011;37795;53.236;5.704;2023-03-19T15:06:51;34.35;;;19.77;;
51718;SDS011;37795;53.236;5.704;2023-03-19T15:09:22;28.63;;;21.08;;
51718;SDS011;37795;53.236;5.704;2023-03-19T15:12:27;35.08;;;23.52;;
51718;SDS011;37795;53.236;5.704;2023-03-19T15:18:03;31.58;;;20.42;;
51718;SDS011;37795;53.236;5.704;2023-03-19T15:20:43;32.00;;;21.52;;
51718;SDS011;37795;53.236;5.704;2023-03-19T15:23:11;30.27;;;19.20;;
51718;SDS011;37795;53.236;5.704;2023-03-19T15:25:48;30.23;;;20.33;;
51718;SDS011;37795;53.236;5.704;2023-03-19T15:28:16;37.35;;;22.05;;
51718;SDS011;37795;53.236;5.704;2023-03-19T15:30:44;35.00;;;21.95;;
51718;SDS011;37795;53.236;5.704;2023-03-19T15:33:19;37.88;;;22.83;;
51718;SDS011;37795;53.236;5.704;2023-03-19T15:35:59;33.92;;;21.05;;
51718;SDS011;37795;53.236;5.704;2023-03-19T15:38:30;38.28;;;22.40;;
51718;SDS011;37795;53.236;5.704;2023-03-19T15:41:01;34.80;;;21.42;;
51718;SDS011;37795;53.236;5.704;2023-03-19T15:43:29;48.45;;;28.13;;
51718;SDS011;37795;53.236;5.704;2023-03-19T15:45:55;42.80;;;23.33;;
51718;SDS011;37795;53.236;5.704;2023-03-19T15:50:59;47.63;;;25.17;;
51718;SDS011;37795;53.236;5.704;2023-03-19T15:53:29;47.80;;;25.50;;
51718;SDS011;37795;53.236;5.704;2023-03-19T15:55:58;45.50;;;25.60;;
51718;SDS011;37795;53.236;5.704;2023-03-19T15:58:30;40.38;;;22.92;;
51718;SDS011;37795;53.236;5.704;2023-03-19T16:01:04;44.47;;;21.23;;
51718;SDS011;37795;53.236;5.704;2023-03-19T16:03:36;37.60;;;20.30;;
51718;SDS011;37795;53.236;5.704;2023-03-19T16:06:05;34.38;;;21.77;;
51718;SDS011;37795;53.236;5.704;2023-03-19T16:08:37;35.78;;;19.92;;
51718;SDS011;37795;53.236;5.704;2023-03-19T16:11:12;35.25;;;19.15;;
51718;SDS011;37795;53.236;5.704;2023-03-19T16:13:38;33.90;;;19.67;;
51718;SDS011;37795;53.236;5.704;2023-03-19T16:16:06;27.92;;;18.13;;
51718;SDS011;37795;53.236;5.704;2023-03-19T16:18:45;33.03;;;20.48;;
51718;SDS011;37795;53.236;5.704;2023-03-19T16:21:20;32.78;;;18.85;;
51718;SDS011;37795;53.236;5.704;2023-03-19T16:26:40;21.83;;;15.43;;
51718;SDS011;37795;53.236;5.704;2023-03-19T16:29:24;23.40;;;15.45;;
51718;SDS011;37795;53.236;5.704;2023-03-19T16:31:52;16.85;;;10.30;;
51718;SDS011;37795;53.236;5.704;2023-03-19T16:34:33;15.20;;;11.23;;
51718;SDS011;37795;53.236;5.704;2023-03-19T16:42:40;9.50;;;7.03;;
51718;SDS011;37795;53.236;5.704;2023-03-19T16:47:43;10.05;;;6.97;;
51718;SDS011;37795;53.236;5.704;2023-03-19T16:50:11;12.52;;;9.10;;
51718;SDS011;37795;53.236;5.704;2023-03-19T16:52:38;12.20;;;7.35;;
51718;SDS011;37795;53.236;5.704;2023-03-19T16:55:14;13.32;;;8.00;;
51718;SDS011;37795;53.236;5.704;2023-03-19T16:57:56;7.00;;;6.13;;
51718;SDS011;37795;53.236;5.704;2023-03-19T17:00:25;9.32;;;6.95;;
51718;SDS011;37795;53.236;5.704;2023-03-19T17:02:53;6.68;;;5.47;;
51718;SDS011;37795;53.236;5.704;2023-03-19T17:05:23;6.68;;;5.95;;
51718;SDS011;37795;53.236;5.704;2023-03-19T17:07:50;7.13;;;5.60;;
51718;SDS011;37795;53.236;5.704;2023-03-19T17:10:17;7.13;;;6.43;;
51718;SDS011;37795;53.236;5.704;2023-03-19T17:12:46;6.32;;;5.05;;
51718;SDS011;37795;53.236;5.704;2023-03-19T17:17:50;6.45;;;4.97;;
51718;SDS011;37795;53.236;5.704;2023-03-19T17:20:17;9.07;;;5.40;;
51718;SDS011;37795;53.236;5.704;2023-03-19T17:22:46;10.32;;;7.00;;
51718;SDS011;37795;53.236;5.704;2023-03-19T17:25:13;8.38;;;6.32;;
51718;SDS011;37795;53.236;5.704;2023-03-19T17:27:43;7.50;;;6.38;;